sensor_id;sensor_type;location;lat;lon;timestamp;P1;durP1;ratioP1;P2;durP2;ratioP2
55067;SDS011;40965;52.368;9.712;2023-03-01T00:01:37;8.40;;;5.40;;
55067;SDS011;40965;52.368;9.712;2023-03-01T00:04:04;11.45;;;6.03;;
55067;SDS011;40965;52.368;9.712;2023-03-01T00:06:30;9.15;;;5.63;;
55067;SDS011;40965;52.368;9.712;2023-03-01T00:08:57;17.60;;;6.88;;
55067;SDS011;40965;52.368;9.712;2023-03-01T00:11:27;15.25;;;7.18;;
55067;SDS011;40965;52.368;9.712;2023-03-01T00:13:57;11.55;;;6.90;;
55067;SDS011;40965;52.368;9.712;2023-03-01T00:16:27;11.35;;;6.25;;
55067;SDS011;40965;52.368;9.712;2023-03-01T00:18:58;8.63;;;5.25;;
55067;SDS011;40965;52.368;9.712;2023-03-01T00:21:25;8.05;;;5.93;;
55067;SDS011;40965;52.368;9.712;2023-03-01T00:23:52;9.15;;;5.80;;
55067;SDS011;40965;52.368;9.712;2023-03-01T00:26:21;14.93;;;7.55;;
55067;SDS011;40965;52.368;9.712;2023-03-01T00:28:48;12.40;;;7.05;;
55067;SDS011;40965;52.368;9.712;2023-03-01T00:31:16;12.20;;;5.90;;
55067;SDS011;40965;52.368;9.712;2023-03-01T00:33:48;11.57;;;7.03;;
55067;SDS011;40965;52.368;9.712;2023-03-01T00:36:18;13.52;;;7.97;;
55067;SDS011;40965;52.368;9.712;2023-03-01T00:38:45;11.13;;;6.95;;
55067;SDS011;40965;52.368;9.712;2023-03-01T00:41:13;14.75;;;7.53;;
55067;SDS011;40965;52.368;9.712;2023-03-01T00:43:44;11.40;;;7.07;;
55067;SDS011;40965;52.368;9.712;2023-03-01T00:46:12;16.30;;;8.30;;
55067;SDS011;40965;52.368;9.712;2023-03-01T00:48:42;11.32;;;7.20;;
55067;SDS011;40965;52.368;9.712;2023-03-01T00:51:13;11.55;;;7.00;;
55067;SDS011;40965;52.368;9.712;2023-03-01T00:53:44;14.18;;;7.47;;
55067;SDS011;40965;52.368;9.712;2023-03-01T00:56:11;11.93;;;7.35;;
55067;SDS011;40965;52.368;9.712;2023-03-01T00:58:40;12.60;;;7.03;;
55067;SDS011;40965;52.368;9.712;2023-03-01T01:01:18;13.23;;;7.32;;
55067;SDS011;40965;52.368;9.712;2023-03-01T01:03:49;11.35;;;6.85;;
55067;SDS011;40965;52.368;9.712;2023-03-01T01:06:24;11.07;;;7.18;;
55067;SDS011;40965;52.368;9.712;2023-03-01T01:09:03;10.20;;;7.25;;
55067;SDS011;40965;52.368;9.712;2023-03-01T01:11:33;14.32;;;8.18;;
55067;SDS011;40965;52.368;9.712;2023-03-01T01:14:01;15.30;;;8.30;;
55067;SDS011;40965;52.368;9.712;2023-03-01T01:16:29;23.75;;;8.45;;
55067;SDS011;40965;52.368;9.712;2023-03-01T01:18:56;17.85;;;9.27;;
55067;SDS011;40965;52.368;9.712;2023-03-01T01:21:23;11.38;;;7.03;;
55067;SDS011;40965;52.368;9.712;2023-03-01T01:23:52;11.25;;;7.32;;
55067;SDS011;40965;52.368;9.712;2023-03-01T01:26:23;10.43;;;6.22;;
55067;SDS011;40965;52.368;9.712;2023-03-01T01:28:53;11.93;;;7.60;;
55067;SDS011;40965;52.368;9.712;2023-03-01T01:31:21;11.43;;;6.78;;
55067;SDS011;40965;52.368;9.712;2023-03-01T01:33:49;13.63;;;7.68;;
55067;SDS011;40965;52.368;9.712;2023-03-01T01:36:17;13.30;;;7.53;;
55067;SDS011;40965;52.368;9.712;2023-03-01T01:38:44;19.95;;;7.55;;
55067;SDS011;40965;52.368;9.712;2023-03-01T01:41:10;13.35;;;8.25;;
55067;SDS011;40965;52.368;9.712;2023-03-01T01:43:42;14.80;;;8.88;;
55067;SDS011;40965;52.368;9.712;2023-03-01T01:46:18;12.10;;;6.82;;
55067;SDS011;40965;52.368;9.712;2023-03-01T01:48:56;10.02;;;7.05;;
55067;SDS011;40965;52.368;9.712;2023-03-01T01:51:36;16.85;;;7.18;;
55067;SDS011;40965;52.368;9.712;2023-03-01T01:54:14;10.15;;;6.45;;
55067;SDS011;40965;52.368;9.712;2023-03-01T01:57:03;10.57;;;6.53;;
55067;SDS011;40965;52.368;9.712;2023-03-01T01:59:36;14.02;;;6.45;;
55067;SDS011;40965;52.368;9.712;2023-03-01T02:02:05;12.70;;;6.53;;
55067;SDS011;40965;52.368;9.712;2023-03-01T02:04:31;12.07;;;6.50;;
55067;SDS011;40965;52.368;9.712;2023-03-01T02:07:21;12.32;;;6.20;;
55067;SDS011;40965;52.368;9.712;2023-03-01T02:09:48;14.02;;;7.88;;
55067;SDS011;40965;52.368;9.712;2023-03-01T02:12:17;11.23;;;6.60;;
55067;SDS011;40965;52.368;9.712;2023-03-01T02:14:48;10.85;;;7.80;;
55067;SDS011;40965;52.368;9.712;2023-03-01T02:17:15;15.35;;;7.57;;
55067;SDS011;40965;52.368;9.712;2023-03-01T02:22:24;11.23;;;7.03;;
55067;SDS011;40965;52.368;9.712;2023-03-01T02:24:57;10.93;;;6.85;;
55067;SDS011;40965;52.368;9.712;2023-03-01T02:33:42;10.73;;;6.63;;
55067;SDS011;40965;52.368;9.712;2023-03-01T02:36:12;13.07;;;6.55;;
55067;SDS011;40965;52.368;9.712;2023-03-01T02:38:48;15.30;;;8.40;;
55067;SDS011;40965;52.368;9.712;2023-03-01T02:41:19;15.85;;;8.35;;
55067;SDS011;40965;52.368;9.712;2023-03-01T02:43:47;13.80;;;7.82;;
55067;SDS011;40965;52.368;9.712;2023-03-01T02:46:15;17.85;;;9.95;;
55067;SDS011;40965;52.368;9.712;2023-03-01T02:48:50;14.00;;;9.60;;
55067;SDS011;40965;52.368;9.712;2023-03-01T02:54:02;16.42;;;9.48;;
55067;SDS011;40965;52.368;9.712;2023-03-01T02:56:51;16.98;;;8.48;;
55067;SDS011;40965;52.368;9.712;2023-03-01T02:59:19;15.98;;;9.55;;
55067;SDS011;40965;52.368;9.712;2023-03-01T03:01:49;15.45;;;8.85;;
55067;SDS011;40965;52.368;9.712;2023-03-01T03:04:16;11.77;;;8.48;;
55067;SDS011;40965;52.368;9.712;2023-03-01T03:06:46;18.20;;;10.23;;
55067;SDS011;40965;52.368;9.712;2023-03-01T03:09:15;14.15;;;8.18;;
55067;SDS011;40965;52.368;9.712;2023-03-01T03:11:43;15.38;;;9.25;;
55067;SDS011;40965;52.368;9.712;2023-03-01T03:14:10;12.48;;;8.35;;
55067;SDS011;40965;52.368;9.712;2023-03-01T03:16:40;16.25;;;9.05;;
55067;SDS011;40965;52.368;9.712;2023-03-01T03:19:12;16.17;;;7.70;;
55067;SDS011;40965;52.368;9.712;2023-03-01T03:21:39;13.13;;;8.13;;
55067;SDS011;40965;52.368;9.712;2023-03-01T03:24:06;15.20;;;9.60;;
55067;SDS011;40965;52.368;9.712;2023-03-01T03:26:32;15.02;;;8.25;;
55067;SDS011;40965;52.368;9.712;2023-03-01T03:28:59;14.55;;;8.48;;
55067;SDS011;40965;52.368;9.712;2023-03-01T03:31:26;13.80;;;7.75;;
55067;SDS011;40965;52.368;9.712;2023-03-01T03:33:53;16.00;;;9.70;;
55067;SDS011;40965;52.368;9.712;2023-03-01T03:36:22;13.15;;;7.57;;
55067;SDS011;40965;52.368;9.712;2023-03-01T03:38:50;14.00;;;8.15;;
55067;SDS011;40965;52.368;9.712;2023-03-01T03:41:17;12.13;;;7.80;;
55067;SDS011;40965;52.368;9.712;2023-03-01T03:43:44;13.23;;;8.05;;
55067;SDS011;40965;52.368;9.712;2023-03-01T03:46:11;15.25;;;8.20;;
55067;SDS011;40965;52.368;9.712;2023-03-01T03:48:42;16.50;;;9.23;;
55067;SDS011;40965;52.368;9.712;2023-03-01T03:51:11;14.45;;;7.55;;
55067;SDS011;40965;52.368;9.712;2023-03-01T03:53:44;15.05;;;9.52;;
55067;SDS011;40965;52.368;9.712;2023-03-01T03:56:11;15.23;;;8.15;;
55067;SDS011;40965;52.368;9.712;2023-03-01T03:58:38;12.30;;;7.97;;
55067;SDS011;40965;52.368;9.712;2023-03-01T04:01:05;14.32;;;7.93;;
55067;SDS011;40965;52.368;9.712;2023-03-01T04:03:32;17.42;;;8.32;;
55067;SDS011;40965;52.368;9.712;2023-03-01T04:06:00;13.10;;;8.00;;
55067;SDS011;40965;52.368;9.712;2023-03-01T04:08:27;21.58;;;9.20;;
55067;SDS011;40965;52.368;9.712;2023-03-01T04:11:00;15.40;;;10.00;;
55067;SDS011;40965;52.368;9.712;2023-03-01T04:13:50;13.27;;;9.53;;
55067;SDS011;40965;52.368;9.712;2023-03-01T04:16:19;17.27;;;9.07;;
55067;SDS011;40965;52.368;9.712;2023-03-01T04:18:46;16.75;;;10.27;;
55067;SDS011;40965;52.368;9.712;2023-03-01T04:21:14;18.37;;;10.00;;
55067;SDS011;40965;52.368;9.712;2023-03-01T04:23:41;18.08;;;9.38;;
55067;SDS011;40965;52.368;9.712;2023-03-01T04:26:08;20.33;;;8.43;;
55067;SDS011;40965;52.368;9.712;2023-03-01T04:28:36;18.87;;;10.60;;
55067;SDS011;40965;52.368;9.712;2023-03-01T04:31:11;18.20;;;10.32;;
55067;SDS011;40965;52.368;9.712;2023-03-01T04:33:45;15.57;;;8.73;;
55067;SDS011;40965;52.368;9.712;2023-03-01T04:36:16;16.70;;;10.03;;
55067;SDS011;40965;52.368;9.712;2023-03-01T04:38:44;22.02;;;9.63;;
55067;SDS011;40965;52.368;9.712;2023-03-01T04:41:12;19.02;;;11.65;;
55067;SDS011;40965;52.368;9.712;2023-03-01T04:43:43;18.37;;;9.80;;
55067;SDS011;40965;52.368;9.712;2023-03-01T04:46:14;16.70;;;10.32;;
55067;SDS011;40965;52.368;9.712;2023-03-01T04:48:46;19.50;;;9.43;;
55067;SDS011;40965;52.368;9.712;2023-03-01T04:51:13;17.85;;;9.27;;
55067;SDS011;40965;52.368;9.712;2023-03-01T04:53:40;16.40;;;9.93;;
55067;SDS011;40965;52.368;9.712;2023-03-01T04:56:08;14.73;;;9.30;;
55067;SDS011;40965;52.368;9.712;2023-03-01T04:58:35;15.43;;;9.57;;
55067;SDS011;40965;52.368;9.712;2023-03-01T05:01:17;19.70;;;9.13;;
55067;SDS011;40965;52.368;9.712;2023-03-01T05:03:46;16.63;;;10.00;;
55067;SDS011;40965;52.368;9.712;2023-03-01T05:06:15;16.97;;;9.33;;
55067;SDS011;40965;52.368;9.712;2023-03-01T05:08:46;15.57;;;9.43;;
55067;SDS011;40965;52.368;9.712;2023-03-01T05:11:12;14.93;;;8.57;;
55067;SDS011;40965;52.368;9.712;2023-03-01T05:13:39;13.50;;;9.87;;
55067;SDS011;40965;52.368;9.712;2023-03-01T05:16:06;16.33;;;9.30;;
55067;SDS011;40965;52.368;9.712;2023-03-01T05:18:35;14.97;;;8.47;;
55067;SDS011;40965;52.368;9.712;2023-03-01T05:21:04;12.03;;;8.53;;
55067;SDS011;40965;52.368;9.712;2023-03-01T05:23:33;16.90;;;9.48;;
55067;SDS011;40965;52.368;9.712;2023-03-01T05:26:01;13.93;;;8.47;;
55067;SDS011;40965;52.368;9.712;2023-03-01T05:28:30;14.80;;;8.70;;
55067;SDS011;40965;52.368;9.712;2023-03-01T05:30:57;15.13;;;9.67;;
55067;SDS011;40965;52.368;9.712;2023-03-01T05:33:24;14.43;;;7.93;;
55067;SDS011;40965;52.368;9.712;2023-03-01T05:35:52;16.93;;;9.87;;
55067;SDS011;40965;52.368;9.712;2023-03-01T05:38:20;18.03;;;9.13;;
55067;SDS011;40965;52.368;9.712;2023-03-01T05:40:48;15.47;;;9.60;;
55067;SDS011;40965;52.368;9.712;2023-03-01T05:43:16;17.37;;;9.80;;
55067;SDS011;40965;52.368;9.712;2023-03-01T05:45:43;17.07;;;9.77;;
55067;SDS011;40965;52.368;9.712;2023-03-01T05:48:11;12.53;;;8.33;;
55067;SDS011;40965;52.368;9.712;2023-03-01T05:50:43;14.50;;;8.43;;
55067;SDS011;40965;52.368;9.712;2023-03-01T05:55:40;15.80;;;9.20;;
55067;SDS011;40965;52.368;9.712;2023-03-01T05:58:09;15.90;;;9.77;;
55067;SDS011;40965;52.368;9.712;2023-03-01T06:00:39;17.50;;;9.67;;
55067;SDS011;40965;52.368;9.712;2023-03-01T06:03:05;19.13;;;10.60;;
55067;SDS011;40965;52.368;9.712;2023-03-01T06:05:33;17.13;;;9.77;;
55067;SDS011;40965;52.368;9.712;2023-03-01T06:08:00;17.10;;;10.03;;
55067;SDS011;40965;52.368;9.712;2023-03-01T06:10:27;19.40;;;10.30;;
55067;SDS011;40965;52.368;9.712;2023-03-01T06:12:55;17.30;;;9.57;;
55067;SDS011;40965;52.368;9.712;2023-03-01T06:15:22;18.47;;;10.57;;
55067;SDS011;40965;52.368;9.712;2023-03-01T06:17:50;20.53;;;9.67;;
55067;SDS011;40965;52.368;9.712;2023-03-01T06:20:18;17.50;;;10.32;;
55067;SDS011;40965;52.368;9.712;2023-03-01T06:22:47;18.30;;;9.70;;
55067;SDS011;40965;52.368;9.712;2023-03-01T06:25:18;24.03;;;10.73;;
55067;SDS011;40965;52.368;9.712;2023-03-01T06:27:49;18.60;;;10.00;;
55067;SDS011;40965;52.368;9.712;2023-03-01T06:30:17;15.43;;;9.47;;
55067;SDS011;40965;52.368;9.712;2023-03-01T06:32:52;12.75;;;7.55;;
55067;SDS011;40965;52.368;9.712;2023-03-01T06:35:27;22.30;;;10.13;;
55067;SDS011;40965;52.368;9.712;2023-03-01T06:37:56;14.27;;;9.27;;
55067;SDS011;40965;52.368;9.712;2023-03-01T06:40:24;20.47;;;9.77;;
55067;SDS011;40965;52.368;9.712;2023-03-01T06:42:51;18.88;;;10.65;;
55067;SDS011;40965;52.368;9.712;2023-03-01T06:45:18;13.55;;;9.95;;
55067;SDS011;40965;52.368;9.712;2023-03-01T06:47:46;25.70;;;11.30;;
55067;SDS011;40965;52.368;9.712;2023-03-01T06:50:13;12.50;;;8.48;;
55067;SDS011;40965;52.368;9.712;2023-03-01T06:52:42;20.53;;;11.77;;
55067;SDS011;40965;52.368;9.712;2023-03-01T06:55:10;18.20;;;9.77;;
55067;SDS011;40965;52.368;9.712;2023-03-01T06:57:37;19.47;;;9.77;;
55067;SDS011;40965;52.368;9.712;2023-03-01T07:00:04;14.65;;;9.77;;
55067;SDS011;40965;52.368;9.712;2023-03-01T07:02:32;22.33;;;10.83;;
55067;SDS011;40965;52.368;9.712;2023-03-01T07:04:58;24.50;;;11.30;;
55067;SDS011;40965;52.368;9.712;2023-03-01T07:07:25;20.55;;;13.55;;
55067;SDS011;40965;52.368;9.712;2023-03-01T07:09:52;17.73;;;10.48;;
55067;SDS011;40965;52.368;9.712;2023-03-01T07:12:19;34.42;;;12.45;;
55067;SDS011;40965;52.368;9.712;2023-03-01T07:14:45;19.33;;;10.38;;
55067;SDS011;40965;52.368;9.712;2023-03-01T07:17:12;20.17;;;11.65;;
55067;SDS011;40965;52.368;9.712;2023-03-01T07:19:38;21.80;;;11.27;;
55067;SDS011;40965;52.368;9.712;2023-03-01T07:22:05;16.88;;;9.40;;
55067;SDS011;40965;52.368;9.712;2023-03-01T07:24:33;13.85;;;7.93;;
55067;SDS011;40965;52.368;9.712;2023-03-01T07:27:00;11.00;;;6.93;;
55067;SDS011;40965;52.368;9.712;2023-03-01T07:29:26;12.18;;;7.10;;
55067;SDS011;40965;52.368;9.712;2023-03-01T07:31:53;13.77;;;6.72;;
55067;SDS011;40965;52.368;9.712;2023-03-01T07:34:23;9.07;;;6.32;;
55067;SDS011;40965;52.368;9.712;2023-03-01T07:36:50;12.70;;;7.43;;
55067;SDS011;40965;52.368;9.712;2023-03-01T07:39:17;11.25;;;6.28;;
55067;SDS011;40965;52.368;9.712;2023-03-01T07:41:43;10.93;;;5.93;;
55067;SDS011;40965;52.368;9.712;2023-03-01T07:44:10;16.80;;;7.43;;
55067;SDS011;40965;52.368;9.712;2023-03-01T07:46:36;10.93;;;7.05;;
55067;SDS011;40965;52.368;9.712;2023-03-01T07:49:03;10.57;;;6.13;;
55067;SDS011;40965;52.368;9.712;2023-03-01T07:51:30;17.00;;;7.85;;
55067;SDS011;40965;52.368;9.712;2023-03-01T07:53:56;16.40;;;8.20;;
55067;SDS011;40965;52.368;9.712;2023-03-01T07:56:23;9.02;;;6.68;;
55067;SDS011;40965;52.368;9.712;2023-03-01T07:58:49;14.20;;;8.18;;
55067;SDS011;40965;52.368;9.712;2023-03-01T08:01:17;11.95;;;7.05;;
55067;SDS011;40965;52.368;9.712;2023-03-01T08:03:49;9.13;;;6.13;;
55067;SDS011;40965;52.368;9.712;2023-03-01T08:06:16;11.60;;;6.28;;
55067;SDS011;40965;52.368;9.712;2023-03-01T08:08:44;10.95;;;7.15;;
55067;SDS011;40965;52.368;9.712;2023-03-01T08:11:11;10.68;;;6.85;;
55067;SDS011;40965;52.368;9.712;2023-03-01T08:13:41;11.50;;;6.80;;
55067;SDS011;40965;52.368;9.712;2023-03-01T08:16:12;11.95;;;7.85;;
55067;SDS011;40965;52.368;9.712;2023-03-01T08:18:41;10.80;;;7.45;;
55067;SDS011;40965;52.368;9.712;2023-03-01T08:21:09;15.82;;;9.35;;
55067;SDS011;40965;52.368;9.712;2023-03-01T08:23:41;17.02;;;8.18;;
55067;SDS011;40965;52.368;9.712;2023-03-01T08:26:16;10.85;;;6.80;;
55067;SDS011;40965;52.368;9.712;2023-03-01T08:28:47;10.25;;;5.85;;
55067;SDS011;40965;52.368;9.712;2023-03-01T08:31:22;8.82;;;5.85;;
55067;SDS011;40965;52.368;9.712;2023-03-01T08:33:54;12.38;;;5.85;;
55067;SDS011;40965;52.368;9.712;2023-03-01T08:36:23;9.65;;;5.32;;
55067;SDS011;40965;52.368;9.712;2023-03-01T08:38:57;9.35;;;5.38;;
55067;SDS011;40965;52.368;9.712;2023-03-01T08:41:26;12.95;;;5.57;;
55067;SDS011;40965;52.368;9.712;2023-03-01T08:43:52;6.18;;;4.68;;
55067;SDS011;40965;52.368;9.712;2023-03-01T08:46:27;7.43;;;5.05;;
55067;SDS011;40965;52.368;9.712;2023-03-01T08:48:56;7.55;;;4.57;;
55067;SDS011;40965;52.368;9.712;2023-03-01T08:51:25;6.30;;;4.75;;
55067;SDS011;40965;52.368;9.712;2023-03-01T08:53:54;11.63;;;5.30;;
55067;SDS011;40965;52.368;9.712;2023-03-01T08:56:26;10.43;;;5.70;;
55067;SDS011;40965;52.368;9.712;2023-03-01T08:58:53;9.32;;;5.40;;
55067;SDS011;40965;52.368;9.712;2023-03-01T09:01:19;7.78;;;4.68;;
55067;SDS011;40965;52.368;9.712;2023-03-01T09:03:50;8.45;;;5.15;;
55067;SDS011;40965;52.368;9.712;2023-03-01T09:06:17;11.75;;;4.90;;
55067;SDS011;40965;52.368;9.712;2023-03-01T09:08:44;12.32;;;6.40;;
55067;SDS011;40965;52.368;9.712;2023-03-01T09:11:15;8.80;;;5.90;;
55067;SDS011;40965;52.368;9.712;2023-03-01T09:13:53;7.45;;;4.93;;
55067;SDS011;40965;52.368;9.712;2023-03-01T09:16:21;11.10;;;5.55;;
55067;SDS011;40965;52.368;9.712;2023-03-01T09:18:54;9.43;;;5.03;;
55067;SDS011;40965;52.368;9.712;2023-03-01T09:21:21;7.30;;;4.65;;
55067;SDS011;40965;52.368;9.712;2023-03-01T09:23:51;8.82;;;5.15;;
55067;SDS011;40965;52.368;9.712;2023-03-01T09:26:19;10.48;;;4.63;;
55067;SDS011;40965;52.368;9.712;2023-03-01T09:28:55;8.30;;;4.05;;
55067;SDS011;40965;52.368;9.712;2023-03-01T09:31:22;6.18;;;4.18;;
55067;SDS011;40965;52.368;9.712;2023-03-01T09:33:52;7.40;;;3.67;;
55067;SDS011;40965;52.368;9.712;2023-03-01T09:36:23;9.52;;;3.42;;
55067;SDS011;40965;52.368;9.712;2023-03-01T09:38:52;6.88;;;3.42;;
55067;SDS011;40965;52.368;9.712;2023-03-01T09:47:24;12.05;;;5.50;;
55067;SDS011;40965;52.368;9.712;2023-03-01T09:50:04;9.82;;;4.00;;
55067;SDS011;40965;52.368;9.712;2023-03-01T10:07:05;9.27;;;4.43;;
55067;SDS011;40965;52.368;9.712;2023-03-01T10:09:38;10.68;;;5.10;;
55067;SDS011;40965;52.368;9.712;2023-03-01T10:12:10;10.50;;;4.38;;
55067;SDS011;40965;52.368;9.712;2023-03-01T10:17:48;9.23;;;4.72;;
55067;SDS011;40965;52.368;9.712;2023-03-01T10:20:39;6.72;;;4.53;;
55067;SDS011;40965;52.368;9.712;2023-03-01T10:23:14;8.48;;;4.05;;
55067;SDS011;40965;52.368;9.712;2023-03-01T10:28:37;8.27;;;4.18;;
55067;SDS011;40965;52.368;9.712;2023-03-01T10:31:21;7.80;;;4.82;;
55067;SDS011;40965;52.368;9.712;2023-03-01T10:33:53;10.70;;;6.05;;
55067;SDS011;40965;52.368;9.712;2023-03-01T10:36:22;5.95;;;3.88;;
55067;SDS011;40965;52.368;9.712;2023-03-01T10:38:53;8.35;;;4.50;;
55067;SDS011;40965;52.368;9.712;2023-03-01T10:41:24;5.28;;;3.95;;
55067;SDS011;40965;52.368;9.712;2023-03-01T10:43:54;4.57;;;3.20;;
55067;SDS011;40965;52.368;9.712;2023-03-01T10:46:30;6.80;;;4.47;;
55067;SDS011;40965;52.368;9.712;2023-03-01T10:49:05;13.15;;;3.67;;
55067;SDS011;40965;52.368;9.712;2023-03-01T10:51:51;5.40;;;3.53;;
55067;SDS011;40965;52.368;9.712;2023-03-01T10:54:20;5.03;;;3.47;;
55067;SDS011;40965;52.368;9.712;2023-03-01T10:56:56;6.45;;;3.63;;
55067;SDS011;40965;52.368;9.712;2023-03-01T10:59:29;5.40;;;3.22;;
55067;SDS011;40965;52.368;9.712;2023-03-01T11:04:35;7.97;;;3.28;;
55067;SDS011;40965;52.368;9.712;2023-03-01T11:07:02;11.38;;;4.28;;
55067;SDS011;40965;52.368;9.712;2023-03-01T11:09:32;3.25;;;2.45;;
55067;SDS011;40965;52.368;9.712;2023-03-01T11:12:03;3.92;;;2.70;;
55067;SDS011;40965;52.368;9.712;2023-03-01T11:14:51;4.82;;;2.33;;
55067;SDS011;40965;52.368;9.712;2023-03-01T11:17:30;4.28;;;2.65;;
55067;SDS011;40965;52.368;9.712;2023-03-01T11:19:59;3.85;;;2.92;;
55067;SDS011;40965;52.368;9.712;2023-03-01T11:22:49;4.17;;;2.70;;
55067;SDS011;40965;52.368;9.712;2023-03-01T11:25:21;4.57;;;2.40;;
55067;SDS011;40965;52.368;9.712;2023-03-01T11:27:53;4.55;;;2.30;;
55067;SDS011;40965;52.368;9.712;2023-03-01T11:30:29;5.18;;;2.90;;
55067;SDS011;40965;52.368;9.712;2023-03-01T11:33:03;3.15;;;2.88;;
55067;SDS011;40965;52.368;9.712;2023-03-01T11:35:47;5.50;;;3.05;;
55067;SDS011;40965;52.368;9.712;2023-03-01T11:38:47;7.68;;;3.83;;
55067;SDS011;40965;52.368;9.712;2023-03-01T11:41:18;10.15;;;2.70;;
55067;SDS011;40965;52.368;9.712;2023-03-01T11:43:53;4.20;;;3.17;;
55067;SDS011;40965;52.368;9.712;2023-03-01T11:46:35;5.80;;;2.67;;
55067;SDS011;40965;52.368;9.712;2023-03-01T11:49:31;3.00;;;2.40;;
55067;SDS011;40965;52.368;9.712;2023-03-01T11:52:46;3.42;;;2.60;;
55067;SDS011;40965;52.368;9.712;2023-03-01T11:58:59;3.30;;;2.97;;
55067;SDS011;40965;52.368;9.712;2023-03-01T12:01:48;4.90;;;2.75;;
55067;SDS011;40965;52.368;9.712;2023-03-01T12:14:39;3.85;;;2.67;;
55067;SDS011;40965;52.368;9.712;2023-03-01T12:20:11;3.03;;;1.80;;
55067;SDS011;40965;52.368;9.712;2023-03-01T12:25:41;4.15;;;2.90;;
55067;SDS011;40965;52.368;9.712;2023-03-01T12:28:38;2.20;;;2.00;;
55067;SDS011;40965;52.368;9.712;2023-03-01T12:31:28;5.07;;;3.05;;
55067;SDS011;40965;52.368;9.712;2023-03-01T12:34:19;5.93;;;2.08;;
55067;SDS011;40965;52.368;9.712;2023-03-01T12:40:24;3.28;;;2.78;;
55067;SDS011;40965;52.368;9.712;2023-03-01T12:46:52;5.78;;;2.38;;
55067;SDS011;40965;52.368;9.712;2023-03-01T12:50:01;5.65;;;2.88;;
55067;SDS011;40965;52.368;9.712;2023-03-01T12:55:34;2.75;;;2.55;;
55067;SDS011;40965;52.368;9.712;2023-03-01T12:58:09;2.95;;;2.38;;
55067;SDS011;40965;52.368;9.712;2023-03-01T13:01:02;3.30;;;3.00;;
55067;SDS011;40965;52.368;9.712;2023-03-01T13:07:04;4.30;;;2.78;;
55067;SDS011;40965;52.368;9.712;2023-03-01T13:13:20;5.50;;;2.80;;
55067;SDS011;40965;52.368;9.712;2023-03-01T13:20:54;3.95;;;2.88;;
55067;SDS011;40965;52.368;9.712;2023-03-01T13:23:25;3.13;;;2.40;;
55067;SDS011;40965;52.368;9.712;2023-03-01T13:31:00;3.13;;;2.83;;
55067;SDS011;40965;52.368;9.712;2023-03-01T13:35:56;3.15;;;2.58;;
55067;SDS011;40965;52.368;9.712;2023-03-01T13:41:16;2.63;;;2.42;;
55067;SDS011;40965;52.368;9.712;2023-03-01T13:46:49;3.65;;;3.08;;
55067;SDS011;40965;52.368;9.712;2023-03-01T13:49:22;4.30;;;3.15;;
55067;SDS011;40965;52.368;9.712;2023-03-01T13:52:22;6.00;;;3.25;;
55067;SDS011;40965;52.368;9.712;2023-03-01T13:57:39;2.88;;;2.53;;
55067;SDS011;40965;52.368;9.712;2023-03-01T14:03:05;4.88;;;3.47;;
55067;SDS011;40965;52.368;9.712;2023-03-01T14:06:04;3.45;;;2.88;;
55067;SDS011;40965;52.368;9.712;2023-03-01T14:08:35;3.65;;;3.33;;
55067;SDS011;40965;52.368;9.712;2023-03-01T14:13:54;3.22;;;2.78;;
55067;SDS011;40965;52.368;9.712;2023-03-01T14:19:29;4.55;;;2.58;;
55067;SDS011;40965;52.368;9.712;2023-03-01T14:27:38;2.70;;;2.50;;
55067;SDS011;40965;52.368;9.712;2023-03-01T14:30:26;3.45;;;3.15;;
55067;SDS011;40965;52.368;9.712;2023-03-01T14:33:00;4.82;;;3.15;;
55067;SDS011;40965;52.368;9.712;2023-03-01T14:38:03;2.40;;;2.20;;
55067;SDS011;40965;52.368;9.712;2023-03-01T14:40:32;2.55;;;2.38;;
55067;SDS011;40965;52.368;9.712;2023-03-01T14:43:01;2.95;;;2.38;;
55067;SDS011;40965;52.368;9.712;2023-03-01T14:45:36;4.80;;;2.58;;
55067;SDS011;40965;52.368;9.712;2023-03-01T14:48:03;2.60;;;2.40;;
55067;SDS011;40965;52.368;9.712;2023-03-01T14:50:32;4.95;;;2.58;;
55067;SDS011;40965;52.368;9.712;2023-03-01T14:53:04;10.38;;;7.63;;
55067;SDS011;40965;52.368;9.712;2023-03-01T14:55:37;5.38;;;2.80;;
55067;SDS011;40965;52.368;9.712;2023-03-01T14:58:14;5.90;;;2.70;;
55067;SDS011;40965;52.368;9.712;2023-03-01T15:00:50;3.38;;;2.50;;
55067;SDS011;40965;52.368;9.712;2023-03-01T15:03:23;4.70;;;3.00;;
55067;SDS011;40965;52.368;9.712;2023-03-01T15:05:57;4.32;;;2.40;;
55067;SDS011;40965;52.368;9.712;2023-03-01T15:08:30;3.60;;;2.80;;
55067;SDS011;40965;52.368;9.712;2023-03-01T15:11:20;5.82;;;3.88;;
55067;SDS011;40965;52.368;9.712;2023-03-01T15:13:50;3.20;;;2.47;;
55067;SDS011;40965;52.368;9.712;2023-03-01T15:21:37;4.93;;;3.22;;
55067;SDS011;40965;52.368;9.712;2023-03-01T15:26:51;3.33;;;2.83;;
55067;SDS011;40965;52.368;9.712;2023-03-01T15:29:22;2.40;;;2.20;;
55067;SDS011;40965;52.368;9.712;2023-03-01T15:32:20;2.90;;;1.85;;
55067;SDS011;40965;52.368;9.712;2023-03-01T15:38:29;4.88;;;2.40;;
55067;SDS011;40965;52.368;9.712;2023-03-01T15:44:00;2.47;;;2.28;;
55067;SDS011;40965;52.368;9.712;2023-03-01T15:46:45;2.03;;;1.90;;
55067;SDS011;40965;52.368;9.712;2023-03-01T15:49:27;2.88;;;2.30;;
55067;SDS011;40965;52.368;9.712;2023-03-01T15:52:13;5.07;;;3.40;;
55067;SDS011;40965;52.368;9.712;2023-03-01T15:55:02;2.85;;;2.65;;
55067;SDS011;40965;52.368;9.712;2023-03-01T15:57:32;4.10;;;2.35;;
55067;SDS011;40965;52.368;9.712;2023-03-01T15:59:59;2.30;;;2.10;;
55067;SDS011;40965;52.368;9.712;2023-03-01T16:02:25;3.10;;;1.85;;
55067;SDS011;40965;52.368;9.712;2023-03-01T16:04:52;5.88;;;2.80;;
55067;SDS011;40965;52.368;9.712;2023-03-01T16:07:21;3.05;;;1.60;;
55067;SDS011;40965;52.368;9.712;2023-03-01T16:09:47;4.70;;;2.22;;
55067;SDS011;40965;52.368;9.712;2023-03-01T16:12:14;3.88;;;1.85;;
55067;SDS011;40965;52.368;9.712;2023-03-01T16:14:42;2.45;;;1.98;;
55067;SDS011;40965;52.368;9.712;2023-03-01T16:17:09;2.55;;;1.65;;
55067;SDS011;40965;52.368;9.712;2023-03-01T16:19:36;4.00;;;2.15;;
55067;SDS011;40965;52.368;9.712;2023-03-01T16:22:04;1.98;;;1.67;;
55067;SDS011;40965;52.368;9.712;2023-03-01T16:24:31;1.90;;;1.73;;
55067;SDS011;40965;52.368;9.712;2023-03-01T16:26:57;4.40;;;1.80;;
55067;SDS011;40965;52.368;9.712;2023-03-01T16:29:24;3.53;;;2.20;;
55067;SDS011;40965;52.368;9.712;2023-03-01T16:31:51;3.45;;;2.30;;
55067;SDS011;40965;52.368;9.712;2023-03-01T16:34:17;4.75;;;2.47;;
55067;SDS011;40965;52.368;9.712;2023-03-01T16:36:46;3.08;;;1.80;;
55067;SDS011;40965;52.368;9.712;2023-03-01T16:39:13;6.28;;;2.85;;
55067;SDS011;40965;52.368;9.712;2023-03-01T16:41:39;3.13;;;2.05;;
55067;SDS011;40965;52.368;9.712;2023-03-01T16:44:06;4.25;;;1.73;;
55067;SDS011;40965;52.368;9.712;2023-03-01T16:46:32;5.07;;;2.92;;
55067;SDS011;40965;52.368;9.712;2023-03-01T16:48:59;3.30;;;2.08;;
55067;SDS011;40965;52.368;9.712;2023-03-01T16:51:25;2.35;;;1.80;;
55067;SDS011;40965;52.368;9.712;2023-03-01T16:53:54;4.75;;;2.53;;
55067;SDS011;40965;52.368;9.712;2023-03-01T16:56:20;3.97;;;1.85;;
55067;SDS011;40965;52.368;9.712;2023-03-01T16:58:47;2.85;;;2.40;;
55067;SDS011;40965;52.368;9.712;2023-03-01T17:01:14;3.78;;;1.80;;
55067;SDS011;40965;52.368;9.712;2023-03-01T17:03:45;3.85;;;1.73;;
55067;SDS011;40965;52.368;9.712;2023-03-01T17:06:15;2.85;;;1.88;;
55067;SDS011;40965;52.368;9.712;2023-03-01T17:08:47;1.98;;;1.45;;
55067;SDS011;40965;52.368;9.712;2023-03-01T17:11:16;2.25;;;1.80;;
55067;SDS011;40965;52.368;9.712;2023-03-01T17:13:45;2.72;;;2.20;;
55067;SDS011;40965;52.368;9.712;2023-03-01T17:16:13;3.40;;;2.10;;